sensor_id;sensor_type;location;lat;lon;timestamp;P1;durP1;ratioP1;P2;durP2;ratioP2
80539;SDS011;69869;48.036;15.780;2024-01-30T00:01:25;6.65;;;4.80;;
80539;SDS011;69869;48.036;15.780;2024-01-30T00:03:50;7.18;;;4.88;;
80539;SDS011;69869;48.036;15.780;2024-01-30T00:06:19;5.88;;;4.75;;
80539;SDS011;69869;48.036;15.780;2024-01-30T00:08:48;6.40;;;4.90;;
80539;SDS011;69869;48.036;15.780;2024-01-30T00:11:15;5.72;;;4.70;;
80539;SDS011;69869;48.036;15.780;2024-01-30T00:13:41;7.18;;;5.10;;
80539;SDS011;69869;48.036;15.780;2024-01-30T00:16:07;6.57;;;4.80;;
80539;SDS011;69869;48.036;15.780;2024-01-30T00:18:34;6.30;;;4.82;;
80539;SDS011;69869;48.036;15.780;2024-01-30T00:20:59;6.60;;;4.97;;
80539;SDS011;69869;48.036;15.780;2024-01-30T00:23:25;7.30;;;4.93;;
80539;SDS011;69869;48.036;15.780;2024-01-30T00:25:51;7.90;;;5.07;;
80539;SDS011;69869;48.036;15.780;2024-01-30T00:28:16;6.55;;;4.75;;
80539;SDS011;69869;48.036;15.780;2024-01-30T00:30:42;7.88;;;4.97;;
80539;SDS011;69869;48.036;15.780;2024-01-30T00:33:08;6.95;;;5.05;;
80539;SDS011;69869;48.036;15.780;2024-01-30T00:35:34;6.97;;;4.80;;
80539;SDS011;69869;48.036;15.780;2024-01-30T00:38:00;6.57;;;5.10;;
80539;SDS011;69869;48.036;15.780;2024-01-30T00:40:25;5.68;;;4.50;;
80539;SDS011;69869;48.036;15.780;2024-01-30T00:42:51;5.05;;;4.50;;
80539;SDS011;69869;48.036;15.780;2024-01-30T00:45:17;6.25;;;4.53;;
80539;SDS011;69869;48.036;15.780;2024-01-30T00:47:43;7.05;;;5.00;;
80539;SDS011;69869;48.036;15.780;2024-01-30T00:50:09;5.82;;;4.72;;
80539;SDS011;69869;48.036;15.780;2024-01-30T00:52:34;6.40;;;4.57;;
80539;SDS011;69869;48.036;15.780;2024-01-30T00:55:00;6.18;;;4.20;;
80539;SDS011;69869;48.036;15.780;2024-01-30T00:57:27;5.95;;;4.60;;
80539;SDS011;69869;48.036;15.780;2024-01-30T00:59:53;5.15;;;4.50;;
80539;SDS011;69869;48.036;15.780;2024-01-30T01:02:18;5.65;;;4.28;;
80539;SDS011;69869;48.036;15.780;2024-01-30T01:04:44;6.82;;;4.72;;
80539;SDS011;69869;48.036;15.780;2024-01-30T01:07:10;5.38;;;4.40;;
80539;SDS011;69869;48.036;15.780;2024-01-30T01:09:36;5.38;;;4.32;;
80539;SDS011;69869;48.036;15.780;2024-01-30T01:12:02;5.68;;;4.30;;
80539;SDS011;69869;48.036;15.780;2024-01-30T01:14:29;6.25;;;4.72;;
80539;SDS011;69869;48.036;15.780;2024-01-30T01:16:54;5.68;;;4.50;;
80539;SDS011;69869;48.036;15.780;2024-01-30T01:19:20;5.85;;;4.45;;
80539;SDS011;69869;48.036;15.780;2024-01-30T01:21:46;4.53;;;4.00;;
80539;SDS011;69869;48.036;15.780;2024-01-30T01:24:11;4.40;;;3.97;;
80539;SDS011;69869;48.036;15.780;2024-01-30T01:26:37;6.00;;;4.40;;
80539;SDS011;69869;48.036;15.780;2024-01-30T01:29:03;5.43;;;4.10;;
80539;SDS011;69869;48.036;15.780;2024-01-30T01:31:35;5.95;;;4.63;;
80539;SDS011;69869;48.036;15.780;2024-01-30T01:34:10;5.47;;;4.10;;
80539;SDS011;69869;48.036;15.780;2024-01-30T01:36:36;5.45;;;4.28;;
80539;SDS011;69869;48.036;15.780;2024-01-30T01:39:02;7.18;;;4.30;;
80539;SDS011;69869;48.036;15.780;2024-01-30T01:41:34;5.47;;;3.90;;
80539;SDS011;69869;48.036;15.780;2024-01-30T01:44:00;5.57;;;4.20;;
80539;SDS011;69869;48.036;15.780;2024-01-30T01:46:26;5.75;;;4.25;;
80539;SDS011;69869;48.036;15.780;2024-01-30T01:48:52;6.28;;;4.32;;
80539;SDS011;69869;48.036;15.780;2024-01-30T01:51:19;5.03;;;4.00;;
80539;SDS011;69869;48.036;15.780;2024-01-30T01:53:46;4.50;;;4.10;;
80539;SDS011;69869;48.036;15.780;2024-01-30T01:56:12;5.13;;;4.05;;
80539;SDS011;69869;48.036;15.780;2024-01-30T01:58:38;4.78;;;4.10;;
80539;SDS011;69869;48.036;15.780;2024-01-30T02:01:04;4.95;;;4.13;;
80539;SDS011;69869;48.036;15.780;2024-01-30T02:03:30;5.65;;;4.13;;
80539;SDS011;69869;48.036;15.780;2024-01-30T02:05:56;5.18;;;4.20;;
80539;SDS011;69869;48.036;15.780;2024-01-30T02:08:22;5.22;;;3.90;;
80539;SDS011;69869;48.036;15.780;2024-01-30T02:10:49;4.45;;;3.95;;
80539;SDS011;69869;48.036;15.780;2024-01-30T02:13:15;5.15;;;3.78;;
80539;SDS011;69869;48.036;15.780;2024-01-30T02:15:40;6.07;;;3.90;;
80539;SDS011;69869;48.036;15.780;2024-01-30T02:18:06;4.32;;;3.72;;
80539;SDS011;69869;48.036;15.780;2024-01-30T02:20:32;3.90;;;3.50;;
80539;SDS011;69869;48.036;15.780;2024-01-30T02:23:00;4.60;;;3.88;;
80539;SDS011;69869;48.036;15.780;2024-01-30T02:25:30;5.32;;;3.60;;
80539;SDS011;69869;48.036;15.780;2024-01-30T02:27:58;4.10;;;3.70;;
80539;SDS011;69869;48.036;15.780;2024-01-30T02:30:23;4.70;;;3.85;;
80539;SDS011;69869;48.036;15.780;2024-01-30T02:32:49;5.40;;;4.05;;
80539;SDS011;69869;48.036;15.780;2024-01-30T02:35:15;4.47;;;3.75;;
80539;SDS011;69869;48.036;15.780;2024-01-30T02:37:40;4.78;;;3.75;;
80539;SDS011;69869;48.036;15.780;2024-01-30T02:40:06;4.53;;;4.10;;
80539;SDS011;69869;48.036;15.780;2024-01-30T02:42:32;5.43;;;4.00;;
80539;SDS011;69869;48.036;15.780;2024-01-30T02:44:58;5.15;;;4.32;;
80539;SDS011;69869;48.036;15.780;2024-01-30T02:47:23;4.93;;;4.00;;
80539;SDS011;69869;48.036;15.780;2024-01-30T02:49:49;4.40;;;3.78;;
80539;SDS011;69869;48.036;15.780;2024-01-30T02:52:15;4.20;;;3.63;;
80539;SDS011;69869;48.036;15.780;2024-01-30T02:54:40;4.28;;;3.70;;
80539;SDS011;69869;48.036;15.780;2024-01-30T02:57:06;4.70;;;3.53;;
80539;SDS011;69869;48.036;15.780;2024-01-30T02:59:31;4.43;;;3.80;;
80539;SDS011;69869;48.036;15.780;2024-01-30T03:02:00;5.28;;;4.10;;
80539;SDS011;69869;48.036;15.780;2024-01-30T03:04:26;4.32;;;3.50;;
80539;SDS011;69869;48.036;15.780;2024-01-30T03:06:52;4.95;;;4.10;;
80539;SDS011;69869;48.036;15.780;2024-01-30T03:09:18;4.57;;;3.50;;
80539;SDS011;69869;48.036;15.780;2024-01-30T03:11:43;6.13;;;3.60;;
80539;SDS011;69869;48.036;15.780;2024-01-30T03:14:09;4.35;;;3.50;;
80539;SDS011;69869;48.036;15.780;2024-01-30T03:16:36;5.53;;;3.60;;
80539;SDS011;69869;48.036;15.780;2024-01-30T03:19:03;4.85;;;3.78;;
80539;SDS011;69869;48.036;15.780;2024-01-30T03:21:30;4.90;;;3.33;;
80539;SDS011;69869;48.036;15.780;2024-01-30T03:23:55;3.97;;;3.42;;
80539;SDS011;69869;48.036;15.780;2024-01-30T03:26:21;4.05;;;3.42;;
80539;SDS011;69869;48.036;15.780;2024-01-30T03:28:47;4.07;;;3.28;;
80539;SDS011;69869;48.036;15.780;2024-01-30T03:31:14;4.15;;;3.42;;
80539;SDS011;69869;48.036;15.780;2024-01-30T03:33:40;3.70;;;3.40;;
80539;SDS011;69869;48.036;15.780;2024-01-30T03:36:07;3.50;;;3.20;;
80539;SDS011;69869;48.036;15.780;2024-01-30T03:38:33;4.10;;;3.60;;
80539;SDS011;69869;48.036;15.780;2024-01-30T03:40:59;3.60;;;3.30;;
80539;SDS011;69869;48.036;15.780;2024-01-30T03:43:25;4.00;;;3.28;;
80539;SDS011;69869;48.036;15.780;2024-01-30T03:45:51;3.83;;;3.25;;
80539;SDS011;69869;48.036;15.780;2024-01-30T03:48:17;3.22;;;2.95;;
80539;SDS011;69869;48.036;15.780;2024-01-30T03:50:42;3.75;;;3.30;;
80539;SDS011;69869;48.036;15.780;2024-01-30T03:53:08;4.57;;;3.50;;
80539;SDS011;69869;48.036;15.780;2024-01-30T03:55:34;4.15;;;3.30;;
80539;SDS011;69869;48.036;15.780;2024-01-30T03:57:59;4.88;;;3.28;;
80539;SDS011;69869;48.036;15.780;2024-01-30T04:00:25;4.40;;;3.50;;
80539;SDS011;69869;48.036;15.780;2024-01-30T04:02:51;3.47;;;3.05;;
80539;SDS011;69869;48.036;15.780;2024-01-30T04:05:16;4.38;;;3.25;;
80539;SDS011;69869;48.036;15.780;2024-01-30T04:07:42;4.07;;;3.65;;
80539;SDS011;69869;48.036;15.780;2024-01-30T04:10:09;4.00;;;3.60;;
80539;SDS011;69869;48.036;15.780;2024-01-30T04:12:35;3.47;;;3.10;;
80539;SDS011;69869;48.036;15.780;2024-01-30T04:15:01;4.15;;;3.50;;
80539;SDS011;69869;48.036;15.780;2024-01-30T04:17:27;4.03;;;3.42;;
80539;SDS011;69869;48.036;15.780;2024-01-30T04:19:54;4.47;;;3.50;;
80539;SDS011;69869;48.036;15.780;2024-01-30T04:22:19;5.25;;;3.83;;
80539;SDS011;69869;48.036;15.780;2024-01-30T04:24:45;4.95;;;3.60;;
80539;SDS011;69869;48.036;15.780;2024-01-30T04:27:11;5.05;;;3.65;;
80539;SDS011;69869;48.036;15.780;2024-01-30T04:29:36;5.15;;;3.75;;
80539;SDS011;69869;48.036;15.780;2024-01-30T04:32:02;4.35;;;3.50;;
80539;SDS011;69869;48.036;15.780;2024-01-30T04:34:28;5.20;;;3.50;;
80539;SDS011;69869;48.036;15.780;2024-01-30T04:36:54;4.30;;;3.33;;
80539;SDS011;69869;48.036;15.780;2024-01-30T04:39:19;3.97;;;3.42;;
80539;SDS011;69869;48.036;15.780;2024-01-30T04:41:45;4.28;;;3.53;;
80539;SDS011;69869;48.036;15.780;2024-01-30T04:44:11;4.28;;;3.35;;
80539;SDS011;69869;48.036;15.780;2024-01-30T04:46:36;4.43;;;3.22;;
80539;SDS011;69869;48.036;15.780;2024-01-30T04:49:02;5.32;;;3.88;;
80539;SDS011;69869;48.036;15.780;2024-01-30T04:51:28;5.50;;;3.63;;
80539;SDS011;69869;48.036;15.780;2024-01-30T04:53:54;5.70;;;3.95;;
80539;SDS011;69869;48.036;15.780;2024-01-30T04:56:20;5.03;;;3.70;;
80539;SDS011;69869;48.036;15.780;2024-01-30T04:58:46;5.85;;;3.85;;
80539;SDS011;69869;48.036;15.780;2024-01-30T05:01:18;4.72;;;3.72;;
80539;SDS011;69869;48.036;15.780;2024-01-30T05:03:44;3.58;;;3.17;;
80539;SDS011;69869;48.036;15.780;2024-01-30T05:06:10;4.20;;;3.55;;
80539;SDS011;69869;48.036;15.780;2024-01-30T05:08:35;4.10;;;3.40;;
80539;SDS011;69869;48.036;15.780;2024-01-30T05:11:06;4.05;;;3.33;;
80539;SDS011;69869;48.036;15.780;2024-01-30T05:13:32;5.43;;;3.70;;
80539;SDS011;69869;48.036;15.780;2024-01-30T05:15:58;5.18;;;3.80;;
80539;SDS011;69869;48.036;15.780;2024-01-30T05:18:24;4.30;;;3.50;;
80539;SDS011;69869;48.036;15.780;2024-01-30T05:20:50;5.22;;;3.58;;
80539;SDS011;69869;48.036;15.780;2024-01-30T05:23:15;3.95;;;3.53;;
80539;SDS011;69869;48.036;15.780;2024-01-30T05:25:41;6.05;;;3.53;;
80539;SDS011;69869;48.036;15.780;2024-01-30T05:28:07;4.15;;;3.40;;
80539;SDS011;69869;48.036;15.780;2024-01-30T05:30:33;4.55;;;3.50;;
80539;SDS011;69869;48.036;15.780;2024-01-30T05:32:58;5.05;;;3.67;;
80539;SDS011;69869;48.036;15.780;2024-01-30T05:35:24;5.50;;;3.72;;
80539;SDS011;69869;48.036;15.780;2024-01-30T05:37:50;6.32;;;4.35;;
80539;SDS011;69869;48.036;15.780;2024-01-30T05:40:16;5.60;;;3.97;;
80539;SDS011;69869;48.036;15.780;2024-01-30T05:42:41;5.43;;;3.88;;
80539;SDS011;69869;48.036;15.780;2024-01-30T05:45:07;4.28;;;3.80;;
80539;SDS011;69869;48.036;15.780;2024-01-30T05:47:34;5.75;;;4.25;;
80539;SDS011;69869;48.036;15.780;2024-01-30T05:50:00;6.88;;;4.10;;
80539;SDS011;69869;48.036;15.780;2024-01-30T05:52:25;5.65;;;4.10;;
80539;SDS011;69869;48.036;15.780;2024-01-30T05:54:51;4.90;;;4.22;;
80539;SDS011;69869;48.036;15.780;2024-01-30T05:57:16;6.55;;;4.60;;
80539;SDS011;69869;48.036;15.780;2024-01-30T05:59:42;6.07;;;4.40;;
80539;SDS011;69869;48.036;15.780;2024-01-30T06:02:13;5.10;;;3.85;;
80539;SDS011;69869;48.036;15.780;2024-01-30T06:04:39;5.68;;;4.53;;
80539;SDS011;69869;48.036;15.780;2024-01-30T06:07:04;6.05;;;4.10;;
80539;SDS011;69869;48.036;15.780;2024-01-30T06:09:31;6.35;;;4.13;;
80539;SDS011;69869;48.036;15.780;2024-01-30T06:11:57;4.72;;;3.72;;
80539;SDS011;69869;48.036;15.780;2024-01-30T06:14:23;6.50;;;4.00;;
80539;SDS011;69869;48.036;15.780;2024-01-30T06:16:49;6.93;;;4.70;;
80539;SDS011;69869;48.036;15.780;2024-01-30T06:19:14;5.90;;;4.07;;
80539;SDS011;69869;48.036;15.780;2024-01-30T06:21:40;5.43;;;3.92;;
80539;SDS011;69869;48.036;15.780;2024-01-30T06:24:06;7.07;;;4.32;;
80539;SDS011;69869;48.036;15.780;2024-01-30T06:26:32;5.57;;;4.18;;
80539;SDS011;69869;48.036;15.780;2024-01-30T06:28:57;5.47;;;4.10;;
80539;SDS011;69869;48.036;15.780;2024-01-30T06:31:23;5.78;;;4.00;;
80539;SDS011;69869;48.036;15.780;2024-01-30T06:33:49;5.97;;;4.40;;
80539;SDS011;69869;48.036;15.780;2024-01-30T06:36:15;6.30;;;4.47;;
80539;SDS011;69869;48.036;15.780;2024-01-30T06:38:41;5.05;;;3.97;;
80539;SDS011;69869;48.036;15.780;2024-01-30T06:41:07;6.50;;;3.70;;
80539;SDS011;69869;48.036;15.780;2024-01-30T06:43:32;5.65;;;4.05;;
80539;SDS011;69869;48.036;15.780;2024-01-30T06:45:58;6.50;;;4.38;;
80539;SDS011;69869;48.036;15.780;2024-01-30T06:48:24;5.88;;;4.18;;
80539;SDS011;69869;48.036;15.780;2024-01-30T06:50:52;6.78;;;4.28;;
80539;SDS011;69869;48.036;15.780;2024-01-30T06:53:19;6.47;;;4.43;;
80539;SDS011;69869;48.036;15.780;2024-01-30T06:55:45;6.28;;;4.25;;
80539;SDS011;69869;48.036;15.780;2024-01-30T06:58:10;5.45;;;3.97;;
80539;SDS011;69869;48.036;15.780;2024-01-30T07:00:36;7.22;;;4.25;;
80539;SDS011;69869;48.036;15.780;2024-01-30T07:03:02;6.18;;;4.43;;
80539;SDS011;69869;48.036;15.780;2024-01-30T07:05:28;4.63;;;3.70;;
80539;SDS011;69869;48.036;15.780;2024-01-30T07:07:53;5.68;;;4.13;;
80539;SDS011;69869;48.036;15.780;2024-01-30T07:10:19;5.07;;;3.70;;
80539;SDS011;69869;48.036;15.780;2024-01-30T07:12:45;5.25;;;4.03;;
80539;SDS011;69869;48.036;15.780;2024-01-30T07:15:10;4.68;;;3.90;;
80539;SDS011;69869;48.036;15.780;2024-01-30T07:17:37;5.60;;;4.35;;
80539;SDS011;69869;48.036;15.780;2024-01-30T07:20:03;5.32;;;4.20;;
80539;SDS011;69869;48.036;15.780;2024-01-30T07:22:29;7.47;;;4.78;;
80539;SDS011;69869;48.036;15.780;2024-01-30T07:24:56;7.10;;;4.72;;
80539;SDS011;69869;48.036;15.780;2024-01-30T07:27:22;6.90;;;4.53;;
80539;SDS011;69869;48.036;15.780;2024-01-30T07:29:47;6.63;;;4.63;;
80539;SDS011;69869;48.036;15.780;2024-01-30T07:32:13;9.88;;;4.78;;
80539;SDS011;69869;48.036;15.780;2024-01-30T07:34:39;7.05;;;4.97;;
80539;SDS011;69869;48.036;15.780;2024-01-30T07:37:05;7.32;;;4.90;;
80539;SDS011;69869;48.036;15.780;2024-01-30T07:39:33;6.22;;;4.63;;
80539;SDS011;69869;48.036;15.780;2024-01-30T07:41:59;6.82;;;4.85;;
80539;SDS011;69869;48.036;15.780;2024-01-30T07:44:24;7.68;;;4.80;;
80539;SDS011;69869;48.036;15.780;2024-01-30T07:46:53;10.60;;;5.10;;
80539;SDS011;69869;48.036;15.780;2024-01-30T07:49:19;5.85;;;4.65;;
80539;SDS011;69869;48.036;15.780;2024-01-30T07:51:45;7.93;;;4.45;;
80539;SDS011;69869;48.036;15.780;2024-01-30T07:54:14;6.85;;;4.97;;
80539;SDS011;69869;48.036;15.780;2024-01-30T07:56:40;7.28;;;5.05;;
80539;SDS011;69869;48.036;15.780;2024-01-30T07:59:05;7.10;;;4.75;;
80539;SDS011;69869;48.036;15.780;2024-01-30T08:01:35;6.28;;;4.70;;
80539;SDS011;69869;48.036;15.780;2024-01-30T08:04:00;7.20;;;4.80;;
80539;SDS011;69869;48.036;15.780;2024-01-30T08:06:26;7.38;;;4.60;;
80539;SDS011;69869;48.036;15.780;2024-01-30T08:08:51;8.38;;;4.97;;
80539;SDS011;69869;48.036;15.780;2024-01-30T08:11:19;6.43;;;4.90;;
80539;SDS011;69869;48.036;15.780;2024-01-30T08:13:45;6.13;;;4.72;;
80539;SDS011;69869;48.036;15.780;2024-01-30T08:16:11;7.22;;;4.80;;
80539;SDS011;69869;48.036;15.780;2024-01-30T08:18:37;9.88;;;5.35;;
80539;SDS011;69869;48.036;15.780;2024-01-30T08:21:02;8.93;;;4.95;;
80539;SDS011;69869;48.036;15.780;2024-01-30T08:23:28;7.47;;;4.97;;
80539;SDS011;69869;48.036;15.780;2024-01-30T08:25:54;8.13;;;5.20;;
80539;SDS011;69869;48.036;15.780;2024-01-30T08:28:19;8.30;;;5.18;;
80539;SDS011;69869;48.036;15.780;2024-01-30T08:30:45;7.30;;;5.00;;
80539;SDS011;69869;48.036;15.780;2024-01-30T08:33:10;6.47;;;4.75;;
80539;SDS011;69869;48.036;15.780;2024-01-30T08:35:36;6.65;;;4.90;;
80539;SDS011;69869;48.036;15.780;2024-01-30T08:38:03;7.68;;;4.72;;
80539;SDS011;69869;48.036;15.780;2024-01-30T08:40:29;9.20;;;5.03;;
80539;SDS011;69869;48.036;15.780;2024-01-30T08:42:55;7.45;;;5.30;;
80539;SDS011;69869;48.036;15.780;2024-01-30T08:45:21;7.00;;;5.00;;
80539;SDS011;69869;48.036;15.780;2024-01-30T08:47:46;6.38;;;4.68;;
80539;SDS011;69869;48.036;15.780;2024-01-30T08:50:12;7.25;;;4.75;;
80539;SDS011;69869;48.036;15.780;2024-01-30T08:52:38;6.75;;;4.97;;
80539;SDS011;69869;48.036;15.780;2024-01-30T08:55:03;7.43;;;5.10;;
80539;SDS011;69869;48.036;15.780;2024-01-30T08:57:29;7.00;;;5.32;;
80539;SDS011;69869;48.036;15.780;2024-01-30T08:59:55;6.85;;;4.60;;
80539;SDS011;69869;48.036;15.780;2024-01-30T09:02:21;7.70;;;5.30;;
80539;SDS011;69869;48.036;15.780;2024-01-30T09:04:47;8.45;;;5.40;;
80539;SDS011;69869;48.036;15.780;2024-01-30T09:07:12;7.07;;;5.07;;
80539;SDS011;69869;48.036;15.780;2024-01-30T09:09:39;8.20;;;5.07;;
80539;SDS011;69869;48.036;15.780;2024-01-30T09:12:07;6.63;;;4.95;;
80539;SDS011;69869;48.036;15.780;2024-01-30T09:14:35;6.65;;;5.00;;
80539;SDS011;69869;48.036;15.780;2024-01-30T09:17:01;6.10;;;4.70;;
80539;SDS011;69869;48.036;15.780;2024-01-30T09:19:28;6.32;;;4.72;;
80539;SDS011;69869;48.036;15.780;2024-01-30T09:21:53;6.47;;;5.07;;
80539;SDS011;69869;48.036;15.780;2024-01-30T09:24:19;5.55;;;4.47;;
80539;SDS011;69869;48.036;15.780;2024-01-30T09:26:45;8.13;;;4.95;;
80539;SDS011;69869;48.036;15.780;2024-01-30T09:29:10;5.93;;;4.63;;
80539;SDS011;69869;48.036;15.780;2024-01-30T09:31:36;6.47;;;4.93;;
80539;SDS011;69869;48.036;15.780;2024-01-30T09:34:02;5.60;;;4.70;;
80539;SDS011;69869;48.036;15.780;2024-01-30T09:36:27;6.22;;;4.65;;
80539;SDS011;69869;48.036;15.780;2024-01-30T09:38:53;6.50;;;4.75;;
80539;SDS011;69869;48.036;15.780;2024-01-30T09:41:19;6.40;;;4.72;;
80539;SDS011;69869;48.036;15.780;2024-01-30T09:43:47;6.80;;;4.95;;
80539;SDS011;69869;48.036;15.780;2024-01-30T09:46:14;6.55;;;4.95;;
80539;SDS011;69869;48.036;15.780;2024-01-30T09:48:41;5.57;;;4.45;;
80539;SDS011;69869;48.036;15.780;2024-01-30T09:51:08;6.03;;;4.70;;
80539;SDS011;69869;48.036;15.780;2024-01-30T09:53:35;5.95;;;4.85;;
80539;SDS011;69869;48.036;15.780;2024-01-30T09:56:02;6.20;;;4.28;;
80539;SDS011;69869;48.036;15.780;2024-01-30T09:58:28;5.90;;;4.40;;
80539;SDS011;69869;48.036;15.780;2024-01-30T10:00:53;5.50;;;4.47;;
80539;SDS011;69869;48.036;15.780;2024-01-30T10:03:19;5.97;;;4.80;;
80539;SDS011;69869;48.036;15.780;2024-01-30T10:05:49;6.93;;;4.72;;
80539;SDS011;69869;48.036;15.780;2024-01-30T10:08:19;5.63;;;4.85;;
80539;SDS011;69869;48.036;15.780;2024-01-30T10:10:46;6.32;;;4.90;;
80539;SDS011;69869;48.036;15.780;2024-01-30T10:13:12;6.50;;;4.32;;
80539;SDS011;69869;48.036;15.780;2024-01-30T10:15:38;5.75;;;4.47;;
80539;SDS011;69869;48.036;15.780;2024-01-30T10:18:04;6.00;;;4.63;;
80539;SDS011;69869;48.036;15.780;2024-01-30T10:20:31;6.97;;;5.10;;
80539;SDS011;69869;48.036;15.780;2024-01-30T10:22:57;6.05;;;4.65;;
80539;SDS011;69869;48.036;15.780;2024-01-30T10:25:23;5.47;;;4.50;;
80539;SDS011;69869;48.036;15.780;2024-01-30T10:27:53;6.47;;;4.97;;
80539;SDS011;69869;48.036;15.780;2024-01-30T10:30:20;7.80;;;5.05;;
80539;SDS011;69869;48.036;15.780;2024-01-30T10:32:49;6.88;;;4.80;;
80539;SDS011;69869;48.036;15.780;2024-01-30T10:35:15;6.38;;;4.50;;
80539;SDS011;69869;48.036;15.780;2024-01-30T10:37:44;6.40;;;4.70;;
80539;SDS011;69869;48.036;15.780;2024-01-30T10:42:40;6.95;;;5.03;;
80539;SDS011;69869;48.036;15.780;2024-01-30T10:45:12;6.53;;;4.95;;
80539;SDS011;69869;48.036;15.780;2024-01-30T10:47:52;8.02;;;5.32;;
80539;SDS011;69869;48.036;15.780;2024-01-30T10:50:19;7.00;;;5.00;;
80539;SDS011;69869;48.036;15.780;2024-01-30T10:52:49;6.05;;;4.78;;
80539;SDS011;69869;48.036;15.780;2024-01-30T10:55:15;7.13;;;4.88;;
80539;SDS011;69869;48.036;15.780;2024-01-30T10:57:43;7.22;;;5.10;;
80539;SDS011;69869;48.036;15.780;2024-01-30T11:00:10;7.75;;;5.68;;
80539;SDS011;69869;48.036;15.780;2024-01-30T11:02:41;5.72;;;4.60;;
80539;SDS011;69869;48.036;15.780;2024-01-30T11:05:09;7.40;;;5.32;;
80539;SDS011;69869;48.036;15.780;2024-01-30T11:07:35;6.57;;;5.00;;
80539;SDS011;69869;48.036;15.780;2024-01-30T11:10:03;6.57;;;5.18;;
80539;SDS011;69869;48.036;15.780;2024-01-30T11:12:31;8.18;;;5.15;;
80539;SDS011;69869;48.036;15.780;2024-01-30T11:15:02;6.78;;;5.20;;
80539;SDS011;69869;48.036;15.780;2024-01-30T11:17:43;8.52;;;5.53;;
80539;SDS011;69869;48.036;15.780;2024-01-30T11:20:22;7.00;;;5.18;;
80539;SDS011;69869;48.036;15.780;2024-01-30T11:22:52;6.70;;;4.95;;
80539;SDS011;69869;48.036;15.780;2024-01-30T11:25:20;7.10;;;5.32;;
80539;SDS011;69869;48.036;15.780;2024-01-30T11:27:46;6.60;;;5.20;;
80539;SDS011;69869;48.036;15.780;2024-01-30T11:30:36;6.68;;;4.88;;
80539;SDS011;69869;48.036;15.780;2024-01-30T11:35:29;8.70;;;5.47;;
80539;SDS011;69869;48.036;15.780;2024-01-30T11:38:02;5.47;;;4.57;;
80539;SDS011;69869;48.036;15.780;2024-01-30T11:40:29;6.65;;;4.72;;
80539;SDS011;69869;48.036;15.780;2024-01-30T11:42:56;7.15;;;5.07;;
80539;SDS011;69869;48.036;15.780;2024-01-30T11:45:24;7.60;;;5.28;;
80539;SDS011;69869;48.036;15.780;2024-01-30T11:47:49;6.93;;;5.50;;
80539;SDS011;69869;48.036;15.780;2024-01-30T11:50:15;7.35;;;5.03;;
80539;SDS011;69869;48.036;15.780;2024-01-30T11:52:41;6.47;;;4.70;;
80539;SDS011;69869;48.036;15.780;2024-01-30T11:55:08;6.60;;;4.88;;
80539;SDS011;69869;48.036;15.780;2024-01-30T11:57:35;6.20;;;5.15;;
80539;SDS011;69869;48.036;15.780;2024-01-30T12:00:05;5.78;;;5.05;;
80539;SDS011;69869;48.036;15.780;2024-01-30T12:02:38;7.57;;;4.90;;
80539;SDS011;69869;48.036;15.780;2024-01-30T12:05:07;7.25;;;5.32;;
80539;SDS011;69869;48.036;15.780;2024-01-30T12:07:34;6.20;;;4.88;;
80539;SDS011;69869;48.036;15.780;2024-01-30T12:10:01;7.03;;;5.30;;
80539;SDS011;69869;48.036;15.780;2024-01-30T12:12:27;6.53;;;5.18;;
80539;SDS011;69869;48.036;15.780;2024-01-30T12:14:54;6.97;;;5.30;;
80539;SDS011;69869;48.036;15.780;2024-01-30T12:17:30;6.22;;;4.85;;
80539;SDS011;69869;48.036;15.780;2024-01-30T12:20:06;6.55;;;4.95;;
80539;SDS011;69869;48.036;15.780;2024-01-30T12:22:39;5.53;;;4.65;;
80539;SDS011;69869;48.036;15.780;2024-01-30T12:25:09;6.97;;;5.20;;
80539;SDS011;69869;48.036;15.780;2024-01-30T12:27:39;8.27;;;5.68;;
80539;SDS011;69869;48.036;15.780;2024-01-30T12:30:07;6.63;;;5.00;;
80539;SDS011;69869;48.036;15.780;2024-01-30T12:32:39;8.35;;;5.07;;
80539;SDS011;69869;48.036;15.780;2024-01-30T12:35:13;6.70;;;4.82;;
80539;SDS011;69869;48.036;15.780;2024-01-30T12:37:40;5.35;;;4.75;;
80539;SDS011;69869;48.036;15.780;2024-01-30T12:40:09;5.72;;;4.88;;
80539;SDS011;69869;48.036;15.780;2024-01-30T12:42:38;5.35;;;4.50;;
80539;SDS011;69869;48.036;15.780;2024-01-30T12:45:04;6.95;;;5.00;;
80539;SDS011;69869;48.036;15.780;2024-01-30T12:47:30;5.95;;;4.72;;
80539;SDS011;69869;48.036;15.780;2024-01-30T12:49:56;5.95;;;4.90;;
80539;SDS011;69869;48.036;15.780;2024-01-30T12:52:22;7.68;;;5.32;;
80539;SDS011;69869;48.036;15.780;2024-01-30T12:54:49;6.13;;;4.93;;
80539;SDS011;69869;48.036;15.780;2024-01-30T12:57:15;8.05;;;5.40;;
80539;SDS011;69869;48.036;15.780;2024-01-30T12:59:41;7.45;;;5.18;;
80539;SDS011;69869;48.036;15.780;2024-01-30T13:02:11;6.35;;;4.97;;
80539;SDS011;69869;48.036;15.780;2024-01-30T13:04:38;6.00;;;5.28;;
80539;SDS011;69869;48.036;15.780;2024-01-30T13:07:04;6.45;;;5.22;;
80539;SDS011;69869;48.036;15.780;2024-01-30T13:09:30;7.15;;;5.28;;
80539;SDS011;69869;48.036;15.780;2024-01-30T13:11:56;6.55;;;5.03;;
80539;SDS011;69869;48.036;15.780;2024-01-30T13:14:22;7.22;;;5.25;;
80539;SDS011;69869;48.036;15.780;2024-01-30T13:16:48;7.57;;;5.25;;
80539;SDS011;69869;48.036;15.780;2024-01-30T13:19:14;5.70;;;4.75;;
80539;SDS011;69869;48.036;15.780;2024-01-30T13:21:40;6.22;;;5.18;;
80539;SDS011;69869;48.036;15.780;2024-01-30T13:24:05;5.93;;;4.80;;
80539;SDS011;69869;48.036;15.780;2024-01-30T13:26:32;5.75;;;4.82;;
80539;SDS011;69869;48.036;15.780;2024-01-30T13:28:57;6.28;;;4.95;;
80539;SDS011;69869;48.036;15.780;2024-01-30T13:31:23;7.13;;;5.53;;
80539;SDS011;69869;48.036;15.780;2024-01-30T13:33:50;8.02;;;5.65;;
80539;SDS011;69869;48.036;15.780;2024-01-30T13:36:15;8.20;;;5.50;;
80539;SDS011;69869;48.036;15.780;2024-01-30T13:38:41;7.15;;;5.40;;
80539;SDS011;69869;48.036;15.780;2024-01-30T13:41:07;6.70;;;5.25;;
80539;SDS011;69869;48.036;15.780;2024-01-30T13:43:32;6.85;;;5.63;;
80539;SDS011;69869;48.036;15.780;2024-01-30T13:45:58;6.57;;;5.05;;
80539;SDS011;69869;48.036;15.780;2024-01-30T13:48:24;6.22;;;4.75;;
80539;SDS011;69869;48.036;15.780;2024-01-30T13:50:50;6.32;;;5.28;;
80539;SDS011;69869;48.036;15.780;2024-01-30T13:53:15;6.47;;;5.30;;
80539;SDS011;69869;48.036;15.780;2024-01-30T13:55:41;7.55;;;5.30;;
80539;SDS011;69869;48.036;15.780;2024-01-30T13:58:07;6.85;;;5.50;;
80539;SDS011;69869;48.036;15.780;2024-01-30T14:00:33;6.22;;;5.45;;
80539;SDS011;69869;48.036;15.780;2024-01-30T14:02:59;6.03;;;5.10;;
80539;SDS011;69869;48.036;15.780;2024-01-30T14:05:26;7.50;;;5.80;;
80539;SDS011;69869;48.036;15.780;2024-01-30T14:07:55;7.40;;;5.35;;
80539;SDS011;69869;48.036;15.780;2024-01-30T14:10:22;8.02;;;5.45;;
80539;SDS011;69869;48.036;15.780;2024-01-30T14:12:47;8.60;;;5.82;;
80539;SDS011;69869;48.036;15.780;2024-01-30T14:15:13;6.80;;;5.68;;
80539;SDS011;69869;48.036;15.780;2024-01-30T14:17:46;6.43;;;5.38;;
80539;SDS011;69869;48.036;15.780;2024-01-30T14:20:13;7.35;;;5.90;;
80539;SDS011;69869;48.036;15.780;2024-01-30T14:22:42;7.05;;;5.88;;
80539;SDS011;69869;48.036;15.780;2024-01-30T14:25:07;8.27;;;5.90;;
80539;SDS011;69869;48.036;15.780;2024-01-30T14:27:34;7.30;;;5.63;;
80539;SDS011;69869;48.036;15.780;2024-01-30T14:30:00;9.00;;;6.30;;
80539;SDS011;69869;48.036;15.780;2024-01-30T14:32:26;7.07;;;5.90;;
80539;SDS011;69869;48.036;15.780;2024-01-30T14:34:52;6.93;;;6.13;;